sensor_id;sensor_type;location;lat;lon;timestamp;P1;durP1;ratioP1;P2;durP2;ratioP2
17997;SDS011;9124;48.144;17.098;2022-12-18T00:01:26;16.25;;;9.32;;
17997;SDS011;9124;48.144;17.098;2022-12-18T00:05:07;17.55;;;9.77;;
17997;SDS011;9124;48.144;17.098;2022-12-18T00:08:43;13.02;;;9.50;;
17997;SDS011;9124;48.144;17.098;2022-12-18T00:12:22;20.58;;;10.05;;
17997;SDS011;9124;48.144;17.098;2022-12-18T00:16:05;16.63;;;10.20;;
17997;SDS011;9124;48.144;17.098;2022-12-18T00:19:44;13.13;;;8.75;;
17997;SDS011;9124;48.144;17.098;2022-12-18T00:23:20;18.13;;;10.15;;
17997;SDS011;9124;48.144;17.098;2022-12-18T00:26:57;20.55;;;10.18;;
17997;SDS011;9124;48.144;17.098;2022-12-18T00:30:33;21.35;;;11.30;;
17997;SDS011;9124;48.144;17.098;2022-12-18T00:34:11;23.73;;;11.38;;
17997;SDS011;9124;48.144;17.098;2022-12-18T00:37:49;19.08;;;10.73;;
17997;SDS011;9124;48.144;17.098;2022-12-18T00:41:26;23.23;;;12.07;;
17997;SDS011;9124;48.144;17.098;2022-12-18T00:45:25;20.52;;;11.45;;
17997;SDS011;9124;48.144;17.098;2022-12-18T00:49:03;17.52;;;11.75;;
17997;SDS011;9124;48.144;17.098;2022-12-18T00:52:39;19.55;;;10.98;;
17997;SDS011;9124;48.144;17.098;2022-12-18T00:56:16;20.52;;;11.95;;
17997;SDS011;9124;48.144;17.098;2022-12-18T00:59:53;20.17;;;11.40;;
17997;SDS011;9124;48.144;17.098;2022-12-18T01:03:29;21.08;;;12.43;;
17997;SDS011;9124;48.144;17.098;2022-12-18T01:07:06;26.20;;;12.40;;
17997;SDS011;9124;48.144;17.098;2022-12-18T01:10:43;23.27;;;12.07;;
17997;SDS011;9124;48.144;17.098;2022-12-18T01:14:20;27.65;;;12.57;;
17997;SDS011;9124;48.144;17.098;2022-12-18T01:17:56;22.40;;;12.52;;
17997;SDS011;9124;48.144;17.098;2022-12-18T01:21:36;17.98;;;10.95;;
17997;SDS011;9124;48.144;17.098;2022-12-18T01:25:13;20.77;;;11.88;;
17997;SDS011;9124;48.144;17.098;2022-12-18T01:28:49;17.02;;;10.75;;
17997;SDS011;9124;48.144;17.098;2022-12-18T01:32:26;17.40;;;11.88;;
17997;SDS011;9124;48.144;17.098;2022-12-18T01:36:06;24.00;;;11.55;;
17997;SDS011;9124;48.144;17.098;2022-12-18T01:39:44;21.65;;;11.38;;
17997;SDS011;9124;48.144;17.098;2022-12-18T01:43:39;18.05;;;11.57;;
17997;SDS011;9124;48.144;17.098;2022-12-18T01:51:24;24.98;;;13.15;;
17997;SDS011;9124;48.144;17.098;2022-12-18T01:55:03;22.80;;;12.73;;
17997;SDS011;9124;48.144;17.098;2022-12-18T01:58:56;23.90;;;12.60;;
17997;SDS011;9124;48.144;17.098;2022-12-18T02:02:36;22.10;;;13.27;;
17997;SDS011;9124;48.144;17.098;2022-12-18T02:06:16;28.33;;;14.73;;
17997;SDS011;9124;48.144;17.098;2022-12-18T02:10:00;29.08;;;14.10;;
17997;SDS011;9124;48.144;17.098;2022-12-18T02:17:31;20.55;;;13.73;;
17997;SDS011;9124;48.144;17.098;2022-12-18T02:21:31;28.55;;;14.48;;
17997;SDS011;9124;48.144;17.098;2022-12-18T02:29:45;25.20;;;14.23;;
17997;SDS011;9124;48.144;17.098;2022-12-18T02:33:42;23.40;;;14.07;;
17997;SDS011;9124;48.144;17.098;2022-12-18T02:37:22;29.80;;;15.45;;
17997;SDS011;9124;48.144;17.098;2022-12-18T02:41:02;28.73;;;14.65;;
17997;SDS011;9124;48.144;17.098;2022-12-18T02:44:42;24.92;;;15.07;;
17997;SDS011;9124;48.144;17.098;2022-12-18T02:48:22;24.48;;;13.30;;
17997;SDS011;9124;48.144;17.098;2022-12-18T02:56:28;30.58;;;14.95;;
17997;SDS011;9124;48.144;17.098;2022-12-18T03:03:56;30.45;;;15.73;;
17997;SDS011;9124;48.144;17.098;2022-12-18T03:07:40;25.50;;;13.95;;
17997;SDS011;9124;48.144;17.098;2022-12-18T03:11:22;24.45;;;13.43;;
17997;SDS011;9124;48.144;17.098;2022-12-18T03:15:25;30.35;;;15.63;;
17997;SDS011;9124;48.144;17.098;2022-12-18T03:19:18;22.27;;;13.73;;
17997;SDS011;9124;48.144;17.098;2022-12-18T03:23:06;29.05;;;16.25;;
17997;SDS011;9124;48.144;17.098;2022-12-18T03:26:58;30.00;;;14.85;;
17997;SDS011;9124;48.144;17.098;2022-12-18T03:30:39;33.22;;;16.42;;
17997;SDS011;9124;48.144;17.098;2022-12-18T03:34:20;32.28;;;15.95;;
17997;SDS011;9124;48.144;17.098;2022-12-18T03:38:03;31.13;;;15.43;;
17997;SDS011;9124;48.144;17.098;2022-12-18T03:41:48;32.53;;;14.90;;
17997;SDS011;9124;48.144;17.098;2022-12-18T03:46:36;26.63;;;14.55;;
17997;SDS011;9124;48.144;17.098;2022-12-18T03:53:59;32.38;;;15.13;;
17997;SDS011;9124;48.144;17.098;2022-12-18T03:57:47;30.10;;;14.30;;
17997;SDS011;9124;48.144;17.098;2022-12-18T04:01:28;30.80;;;16.13;;
17997;SDS011;9124;48.144;17.098;2022-12-18T04:05:10;30.42;;;15.68;;
17997;SDS011;9124;48.144;17.098;2022-12-18T04:08:51;33.30;;;16.40;;
17997;SDS011;9124;48.144;17.098;2022-12-18T04:12:31;37.78;;;17.02;;
17997;SDS011;9124;48.144;17.098;2022-12-18T04:16:09;34.70;;;15.70;;
17997;SDS011;9124;48.144;17.098;2022-12-18T04:19:49;33.20;;;15.15;;
17997;SDS011;9124;48.144;17.098;2022-12-18T04:23:26;35.75;;;16.92;;
17997;SDS011;9124;48.144;17.098;2022-12-18T04:27:07;35.03;;;14.93;;
17997;SDS011;9124;48.144;17.098;2022-12-18T04:30:50;32.35;;;16.52;;
17997;SDS011;9124;48.144;17.098;2022-12-18T04:34:27;34.72;;;16.73;;
17997;SDS011;9124;48.144;17.098;2022-12-18T04:38:05;32.03;;;17.02;;
17997;SDS011;9124;48.144;17.098;2022-12-18T04:41:44;28.10;;;15.85;;
17997;SDS011;9124;48.144;17.098;2022-12-18T04:45:22;34.65;;;16.75;;
17997;SDS011;9124;48.144;17.098;2022-12-18T04:48:59;39.47;;;16.45;;
17997;SDS011;9124;48.144;17.098;2022-12-18T04:52:35;28.40;;;14.30;;
17997;SDS011;9124;48.144;17.098;2022-12-18T04:56:13;29.02;;;15.73;;
17997;SDS011;9124;48.144;17.098;2022-12-18T04:59:50;41.50;;;16.77;;
17997;SDS011;9124;48.144;17.098;2022-12-18T05:03:27;29.58;;;14.68;;
17997;SDS011;9124;48.144;17.098;2022-12-18T05:07:03;28.13;;;15.50;;
17997;SDS011;9124;48.144;17.098;2022-12-18T05:10:40;29.35;;;15.70;;
17997;SDS011;9124;48.144;17.098;2022-12-18T05:14:16;30.63;;;16.42;;
17997;SDS011;9124;48.144;17.098;2022-12-18T05:17:53;32.78;;;15.90;;
17997;SDS011;9124;48.144;17.098;2022-12-18T05:21:29;34.17;;;16.77;;
17997;SDS011;9124;48.144;17.098;2022-12-18T05:25:05;47.28;;;17.15;;
17997;SDS011;9124;48.144;17.098;2022-12-18T05:28:43;36.90;;;16.95;;
17997;SDS011;9124;48.144;17.098;2022-12-18T05:32:20;32.40;;;17.02;;
17997;SDS011;9124;48.144;17.098;2022-12-18T05:35:58;30.67;;;16.23;;
17997;SDS011;9124;48.144;17.098;2022-12-18T05:39:36;33.42;;;16.33;;
17997;SDS011;9124;48.144;17.098;2022-12-18T05:43:12;36.75;;;16.63;;
17997;SDS011;9124;48.144;17.098;2022-12-18T05:46:49;36.42;;;17.15;;
17997;SDS011;9124;48.144;17.098;2022-12-18T05:50:26;26.60;;;14.98;;
17997;SDS011;9124;48.144;17.098;2022-12-18T05:54:02;33.35;;;16.13;;
17997;SDS011;9124;48.144;17.098;2022-12-18T05:57:39;40.53;;;17.55;;
17997;SDS011;9124;48.144;17.098;2022-12-18T06:01:17;37.70;;;16.95;;
17997;SDS011;9124;48.144;17.098;2022-12-18T06:04:55;33.00;;;16.92;;
17997;SDS011;9124;48.144;17.098;2022-12-18T06:08:32;36.47;;;16.67;;
17997;SDS011;9124;48.144;17.098;2022-12-18T06:12:08;41.80;;;17.33;;
17997;SDS011;9124;48.144;17.098;2022-12-18T06:15:46;40.70;;;17.73;;
17997;SDS011;9124;48.144;17.098;2022-12-18T06:19:23;33.58;;;15.35;;
17997;SDS011;9124;48.144;17.098;2022-12-18T06:22:59;40.70;;;18.83;;
17997;SDS011;9124;48.144;17.098;2022-12-18T06:26:37;39.47;;;17.88;;
17997;SDS011;9124;48.144;17.098;2022-12-18T06:30:16;38.45;;;17.13;;
17997;SDS011;9124;48.144;17.098;2022-12-18T06:33:53;44.50;;;18.13;;
17997;SDS011;9124;48.144;17.098;2022-12-18T06:37:30;41.28;;;17.15;;
17997;SDS011;9124;48.144;17.098;2022-12-18T06:41:08;33.53;;;15.95;;
17997;SDS011;9124;48.144;17.098;2022-12-18T06:44:46;39.00;;;16.90;;
17997;SDS011;9124;48.144;17.098;2022-12-18T06:48:22;30.95;;;15.90;;
17997;SDS011;9124;48.144;17.098;2022-12-18T06:51:59;33.85;;;17.45;;
17997;SDS011;9124;48.144;17.098;2022-12-18T06:55:35;33.17;;;16.63;;
17997;SDS011;9124;48.144;17.098;2022-12-18T06:59:12;32.00;;;16.52;;
17997;SDS011;9124;48.144;17.098;2022-12-18T07:02:50;38.42;;;17.13;;
17997;SDS011;9124;48.144;17.098;2022-12-18T07:06:27;36.22;;;15.95;;
17997;SDS011;9124;48.144;17.098;2022-12-18T07:10:03;34.97;;;16.63;;
17997;SDS011;9124;48.144;17.098;2022-12-18T07:13:40;37.40;;;17.83;;
17997;SDS011;9124;48.144;17.098;2022-12-18T07:17:17;41.78;;;17.02;;
17997;SDS011;9124;48.144;17.098;2022-12-18T07:20:53;35.65;;;17.42;;
17997;SDS011;9124;48.144;17.098;2022-12-18T07:24:29;32.50;;;17.10;;
17997;SDS011;9124;48.144;17.098;2022-12-18T07:28:08;37.35;;;17.27;;
17997;SDS011;9124;48.144;17.098;2022-12-18T07:31:44;39.65;;;17.42;;
17997;SDS011;9124;48.144;17.098;2022-12-18T07:35:21;38.78;;;15.73;;
17997;SDS011;9124;48.144;17.098;2022-12-18T07:38:57;33.03;;;16.08;;
17997;SDS011;9124;48.144;17.098;2022-12-18T07:42:34;38.28;;;16.65;;
17997;SDS011;9124;48.144;17.098;2022-12-18T07:46:12;35.85;;;17.38;;
17997;SDS011;9124;48.144;17.098;2022-12-18T07:49:49;40.58;;;17.92;;
17997;SDS011;9124;48.144;17.098;2022-12-18T07:53:26;41.05;;;17.92;;
17997;SDS011;9124;48.144;17.098;2022-12-18T07:57:03;39.47;;;18.40;;
17997;SDS011;9124;48.144;17.098;2022-12-18T08:00:39;36.47;;;17.30;;
17997;SDS011;9124;48.144;17.098;2022-12-18T08:04:16;30.00;;;15.48;;
17997;SDS011;9124;48.144;17.098;2022-12-18T08:07:52;37.55;;;16.45;;
17997;SDS011;9124;48.144;17.098;2022-12-18T08:11:29;34.83;;;17.40;;
17997;SDS011;9124;48.144;17.098;2022-12-18T08:15:06;38.22;;;18.98;;
17997;SDS011;9124;48.144;17.098;2022-12-18T08:18:43;44.50;;;18.38;;
17997;SDS011;9124;48.144;17.098;2022-12-18T08:22:19;40.17;;;18.48;;
17997;SDS011;9124;48.144;17.098;2022-12-18T08:25:57;36.03;;;18.50;;
17997;SDS011;9124;48.144;17.098;2022-12-18T08:29:34;41.92;;;19.77;;
17997;SDS011;9124;48.144;17.098;2022-12-18T08:33:10;38.97;;;18.70;;
17997;SDS011;9124;48.144;17.098;2022-12-18T08:36:47;42.30;;;18.80;;
17997;SDS011;9124;48.144;17.098;2022-12-18T08:40:23;36.65;;;18.27;;
17997;SDS011;9124;48.144;17.098;2022-12-18T08:44:00;34.10;;;18.30;;
17997;SDS011;9124;48.144;17.098;2022-12-18T08:47:55;35.35;;;17.13;;
17997;SDS011;9124;48.144;17.098;2022-12-18T08:51:32;32.45;;;16.73;;
17997;SDS011;9124;48.144;17.098;2022-12-18T08:55:08;34.33;;;17.50;;
17997;SDS011;9124;48.144;17.098;2022-12-18T08:58:46;34.70;;;17.90;;
17997;SDS011;9124;48.144;17.098;2022-12-18T09:02:22;34.42;;;17.50;;
17997;SDS011;9124;48.144;17.098;2022-12-18T09:05:58;32.95;;;16.55;;
17997;SDS011;9124;48.144;17.098;2022-12-18T09:09:35;29.35;;;16.10;;
17997;SDS011;9124;48.144;17.098;2022-12-18T09:13:12;28.30;;;16.17;;
17997;SDS011;9124;48.144;17.098;2022-12-18T09:16:50;32.28;;;15.65;;
17997;SDS011;9124;48.144;17.098;2022-12-18T09:20:26;31.30;;;17.73;;
17997;SDS011;9124;48.144;17.098;2022-12-18T09:24:05;31.95;;;17.30;;
17997;SDS011;9124;48.144;17.098;2022-12-18T09:27:42;28.10;;;15.10;;
17997;SDS011;9124;48.144;17.098;2022-12-18T09:31:19;24.98;;;14.75;;
17997;SDS011;9124;48.144;17.098;2022-12-18T09:34:57;28.77;;;15.25;;
17997;SDS011;9124;48.144;17.098;2022-12-18T09:38:33;26.77;;;14.68;;
17997;SDS011;9124;48.144;17.098;2022-12-18T09:42:18;26.98;;;14.55;;
17997;SDS011;9124;48.144;17.098;2022-12-18T09:45:59;37.40;;;15.73;;
17997;SDS011;9124;48.144;17.098;2022-12-18T09:49:43;29.75;;;15.48;;
17997;SDS011;9124;48.144;17.098;2022-12-18T09:53:22;26.27;;;14.55;;
17997;SDS011;9124;48.144;17.098;2022-12-18T09:57:03;27.42;;;14.15;;
17997;SDS011;9124;48.144;17.098;2022-12-18T10:00:40;32.85;;;15.80;;
17997;SDS011;9124;48.144;17.098;2022-12-18T10:04:17;36.17;;;15.93;;
17997;SDS011;9124;48.144;17.098;2022-12-18T10:08:02;34.30;;;15.40;;
17997;SDS011;9124;48.144;17.098;2022-12-18T10:27:36;34.25;;;15.98;;
17997;SDS011;9124;48.144;17.098;2022-12-18T10:31:20;34.08;;;15.60;;
17997;SDS011;9124;48.144;17.098;2022-12-18T10:34:58;32.33;;;18.08;;
17997;SDS011;9124;48.144;17.098;2022-12-18T10:38:34;36.65;;;16.80;;
17997;SDS011;9124;48.144;17.098;2022-12-18T10:42:16;32.00;;;17.42;;
17997;SDS011;9124;48.144;17.098;2022-12-18T10:45:58;34.08;;;16.77;;
17997;SDS011;9124;48.144;17.098;2022-12-18T10:49:50;36.45;;;17.48;;
17997;SDS011;9124;48.144;17.098;2022-12-18T10:53:31;32.85;;;16.02;;
17997;SDS011;9124;48.144;17.098;2022-12-18T10:57:16;31.35;;;15.70;;
17997;SDS011;9124;48.144;17.098;2022-12-18T11:01:17;28.15;;;16.05;;
17997;SDS011;9124;48.144;17.098;2022-12-18T11:04:55;34.25;;;16.33;;
17997;SDS011;9124;48.144;17.098;2022-12-18T11:08:32;31.13;;;16.70;;
17997;SDS011;9124;48.144;17.098;2022-12-18T11:15:53;41.70;;;18.00;;
17997;SDS011;9124;48.144;17.098;2022-12-18T11:23:44;33.90;;;17.00;;
17997;SDS011;9124;48.144;17.098;2022-12-18T11:27:26;34.65;;;16.50;;
17997;SDS011;9124;48.144;17.098;2022-12-18T11:31:09;31.17;;;16.77;;
17997;SDS011;9124;48.144;17.098;2022-12-18T11:34:49;29.58;;;16.25;;
17997;SDS011;9124;48.144;17.098;2022-12-18T11:38:42;33.17;;;17.60;;
17997;SDS011;9124;48.144;17.098;2022-12-18T11:42:24;37.80;;;16.90;;
17997;SDS011;9124;48.144;17.098;2022-12-18T11:46:25;33.17;;;16.73;;
17997;SDS011;9124;48.144;17.098;2022-12-18T11:50:18;36.20;;;16.70;;
17997;SDS011;9124;48.144;17.098;2022-12-18T11:53:59;32.30;;;16.00;;
17997;SDS011;9124;48.144;17.098;2022-12-18T12:13:00;37.33;;;16.80;;
17997;SDS011;9124;48.144;17.098;2022-12-18T12:16:58;27.70;;;15.45;;
17997;SDS011;9124;48.144;17.098;2022-12-18T12:21:20;31.20;;;16.63;;
17997;SDS011;9124;48.144;17.098;2022-12-18T12:40:56;38.60;;;17.02;;
17997;SDS011;9124;48.144;17.098;2022-12-18T12:45:03;30.73;;;14.93;;
17997;SDS011;9124;48.144;17.098;2022-12-18T12:52:35;31.58;;;15.13;;
17997;SDS011;9124;48.144;17.098;2022-12-18T12:56:19;31.55;;;16.25;;
17997;SDS011;9124;48.144;17.098;2022-12-18T13:03:52;30.80;;;16.08;;
17997;SDS011;9124;48.144;17.098;2022-12-18T13:07:46;34.75;;;15.73;;
17997;SDS011;9124;48.144;17.098;2022-12-18T13:11:37;38.00;;;16.98;;
17997;SDS011;9124;48.144;17.098;2022-12-18T13:15:47;31.85;;;15.68;;
17997;SDS011;9124;48.144;17.098;2022-12-18T13:19:38;30.75;;;15.73;;
17997;SDS011;9124;48.144;17.098;2022-12-18T13:23:19;35.78;;;16.38;;
17997;SDS011;9124;48.144;17.098;2022-12-18T13:27:26;34.95;;;15.95;;
17997;SDS011;9124;48.144;17.098;2022-12-18T13:39:11;33.05;;;16.10;;
17997;SDS011;9124;48.144;17.098;2022-12-18T13:42:51;31.90;;;15.70;;
17997;SDS011;9124;48.144;17.098;2022-12-18T13:46:47;33.60;;;13.55;;
17997;SDS011;9124;48.144;17.098;2022-12-18T13:50:25;31.08;;;14.88;;
17997;SDS011;9124;48.144;17.098;2022-12-18T13:54:03;33.45;;;16.00;;
17997;SDS011;9124;48.144;17.098;2022-12-18T13:58:02;30.98;;;14.27;;
17997;SDS011;9124;48.144;17.098;2022-12-18T14:01:42;33.70;;;15.85;;
17997;SDS011;9124;48.144;17.098;2022-12-18T14:05:42;27.48;;;14.60;;
17997;SDS011;9124;48.144;17.098;2022-12-18T14:09:25;32.50;;;15.80;;
17997;SDS011;9124;48.144;17.098;2022-12-18T14:13:06;32.05;;;16.17;;
17997;SDS011;9124;48.144;17.098;2022-12-18T14:16:45;31.00;;;16.63;;
17997;SDS011;9124;48.144;17.098;2022-12-18T14:20:24;25.90;;;13.27;;
17997;SDS011;9124;48.144;17.098;2022-12-18T14:31:43;29.75;;;15.20;;
17997;SDS011;9124;48.144;17.098;2022-12-18T14:35:20;34.83;;;15.98;;
17997;SDS011;9124;48.144;17.098;2022-12-18T14:38:57;33.60;;;17.45;;
17997;SDS011;9124;48.144;17.098;2022-12-18T14:42:35;39.10;;;17.15;;
17997;SDS011;9124;48.144;17.098;2022-12-18T14:50:13;34.10;;;17.27;;
17997;SDS011;9124;48.144;17.098;2022-12-18T14:54:23;38.30;;;17.83;;
17997;SDS011;9124;48.144;17.098;2022-12-18T14:57:56;31.42;;;15.73;;
17997;SDS011;9124;48.144;17.098;2022-12-18T15:01:37;34.42;;;16.10;;
17997;SDS011;9124;48.144;17.098;2022-12-18T15:05:30;36.40;;;15.57;;
17997;SDS011;9124;48.144;17.098;2022-12-18T15:09:23;28.00;;;14.82;;
17997;SDS011;9124;48.144;17.098;2022-12-18T15:16:39;29.52;;;15.82;;
17997;SDS011;9124;48.144;17.098;2022-12-18T15:20:15;38.05;;;16.95;;
17997;SDS011;9124;48.144;17.098;2022-12-18T15:23:51;35.20;;;16.20;;
17997;SDS011;9124;48.144;17.098;2022-12-18T15:34:50;59.92;;;22.27;;
17997;SDS011;9124;48.144;17.098;2022-12-18T15:38:26;55.08;;;23.05;;
17997;SDS011;9124;48.144;17.098;2022-12-18T15:42:03;56.97;;;23.58;;
17997;SDS011;9124;48.144;17.098;2022-12-18T15:45:58;55.90;;;24.05;;
17997;SDS011;9124;48.144;17.098;2022-12-18T15:49:35;54.78;;;23.38;;
17997;SDS011;9124;48.144;17.098;2022-12-18T15:53:11;57.78;;;24.50;;
17997;SDS011;9124;48.144;17.098;2022-12-18T15:56:47;57.75;;;23.77;;
17997;SDS011;9124;48.144;17.098;2022-12-18T16:00:42;54.25;;;24.35;;
17997;SDS011;9124;48.144;17.098;2022-12-18T16:04:19;61.95;;;24.92;;
17997;SDS011;9124;48.144;17.098;2022-12-18T16:07:56;55.90;;;24.08;;
17997;SDS011;9124;48.144;17.098;2022-12-18T16:11:34;50.17;;;22.45;;
17997;SDS011;9124;48.144;17.098;2022-12-18T16:15:18;45.58;;;19.92;;
17997;SDS011;9124;48.144;17.098;2022-12-18T16:18:55;44.08;;;22.88;;
17997;SDS011;9124;48.144;17.098;2022-12-18T16:22:31;50.03;;;23.90;;
17997;SDS011;9124;48.144;17.098;2022-12-18T16:26:07;53.05;;;24.15;;
17997;SDS011;9124;48.144;17.098;2022-12-18T16:29:44;49.30;;;22.08;;
17997;SDS011;9124;48.144;17.098;2022-12-18T16:33:21;50.95;;;21.88;;
17997;SDS011;9124;48.144;17.098;2022-12-18T16:37:02;50.72;;;23.60;;
17997;SDS011;9124;48.144;17.098;2022-12-18T16:40:40;51.60;;;22.67;;
17997;SDS011;9124;48.144;17.098;2022-12-18T16:44:38;59.88;;;22.70;;
17997;SDS011;9124;48.144;17.098;2022-12-18T16:48:14;55.17;;;23.92;;
17997;SDS011;9124;48.144;17.098;2022-12-18T16:51:52;56.58;;;23.42;;
17997;SDS011;9124;48.144;17.098;2022-12-18T16:55:29;56.17;;;23.85;;
17997;SDS011;9124;48.144;17.098;2022-12-18T16:59:06;53.33;;;23.65;;
17997;SDS011;9124;48.144;17.098;2022-12-18T17:02:44;50.55;;;23.75;;
17997;SDS011;9124;48.144;17.098;2022-12-18T17:06:24;56.25;;;24.17;;
17997;SDS011;9124;48.144;17.098;2022-12-18T17:10:02;55.75;;;25.55;;
17997;SDS011;9124;48.144;17.098;2022-12-18T17:13:38;62.38;;;24.88;;
17997;SDS011;9124;48.144;17.098;2022-12-18T17:17:15;50.22;;;23.92;;
17997;SDS011;9124;48.144;17.098;2022-12-18T17:20:54;62.72;;;26.92;;
17997;SDS011;9124;48.144;17.098;2022-12-18T17:24:37;55.47;;;25.00;;
17997;SDS011;9124;48.144;17.098;2022-12-18T17:28:14;64.85;;;24.65;;
17997;SDS011;9124;48.144;17.098;2022-12-18T17:31:50;58.75;;;23.08;;
17997;SDS011;9124;48.144;17.098;2022-12-18T17:35:27;55.60;;;24.15;;
17997;SDS011;9124;48.144;17.098;2022-12-18T17:39:04;52.13;;;24.33;;
17997;SDS011;9124;48.144;17.098;2022-12-18T17:42:41;58.85;;;23.25;;
17997;SDS011;9124;48.144;17.098;2022-12-18T17:46:18;66.38;;;26.05;;
17997;SDS011;9124;48.144;17.098;2022-12-18T17:49:55;59.45;;;25.45;;
17997;SDS011;9124;48.144;17.098;2022-12-18T17:53:31;65.10;;;25.73;;
17997;SDS011;9124;48.144;17.098;2022-12-18T17:57:08;59.33;;;24.63;;
17997;SDS011;9124;48.144;17.098;2022-12-18T18:00:45;53.85;;;24.60;;
17997;SDS011;9124;48.144;17.098;2022-12-18T18:04:21;52.45;;;23.45;;
17997;SDS011;9124;48.144;17.098;2022-12-18T18:07:58;53.13;;;24.25;;
17997;SDS011;9124;48.144;17.098;2022-12-18T18:11:34;61.80;;;25.73;;
17997;SDS011;9124;48.144;17.098;2022-12-18T18:15:29;51.70;;;23.85;;
17997;SDS011;9124;48.144;17.098;2022-12-18T18:19:07;59.55;;;24.58;;
17997;SDS011;9124;48.144;17.098;2022-12-18T18:22:46;50.60;;;23.77;;
17997;SDS011;9124;48.144;17.098;2022-12-18T18:26:22;61.80;;;26.45;;
17997;SDS011;9124;48.144;17.098;2022-12-18T18:29:59;58.90;;;25.55;;
17997;SDS011;9124;48.144;17.098;2022-12-18T18:33:35;56.85;;;26.45;;
17997;SDS011;9124;48.144;17.098;2022-12-18T18:37:12;56.33;;;23.17;;
17997;SDS011;9124;48.144;17.098;2022-12-18T18:40:56;59.30;;;25.65;;
17997;SDS011;9124;48.144;17.098;2022-12-18T18:44:37;55.00;;;23.55;;
17997;SDS011;9124;48.144;17.098;2022-12-18T18:48:13;53.20;;;25.30;;
17997;SDS011;9124;48.144;17.098;2022-12-18T18:51:50;65.43;;;25.05;;
17997;SDS011;9124;48.144;17.098;2022-12-18T18:55:26;55.80;;;24.33;;
17997;SDS011;9124;48.144;17.098;2022-12-18T18:59:02;57.90;;;24.75;;
17997;SDS011;9124;48.144;17.098;2022-12-18T19:02:38;54.03;;;22.77;;
17997;SDS011;9124;48.144;17.098;2022-12-18T19:06:17;54.38;;;25.10;;
17997;SDS011;9124;48.144;17.098;2022-12-18T19:09:58;64.40;;;24.33;;
17997;SDS011;9124;48.144;17.098;2022-12-18T19:13:35;61.70;;;24.17;;
17997;SDS011;9124;48.144;17.098;2022-12-18T19:17:12;58.78;;;24.67;;
17997;SDS011;9124;48.144;17.098;2022-12-18T19:20:55;62.20;;;24.23;;
17997;SDS011;9124;48.144;17.098;2022-12-18T19:24:55;62.40;;;25.08;;
17997;SDS011;9124;48.144;17.098;2022-12-18T19:28:32;58.88;;;25.45;;
17997;SDS011;9124;48.144;17.098;2022-12-18T19:32:08;53.83;;;22.98;;
17997;SDS011;9124;48.144;17.098;2022-12-18T19:35:45;58.55;;;23.73;;
17997;SDS011;9124;48.144;17.098;2022-12-18T19:39:21;58.13;;;22.98;;
17997;SDS011;9124;48.144;17.098;2022-12-18T19:42:58;55.75;;;23.80;;
17997;SDS011;9124;48.144;17.098;2022-12-18T19:46:34;67.03;;;24.05;;
17997;SDS011;9124;48.144;17.098;2022-12-18T19:50:11;56.40;;;24.65;;
17997;SDS011;9124;48.144;17.098;2022-12-18T19:53:47;46.78;;;17.25;;
17997;SDS011;9124;48.144;17.098;2022-12-18T19:57:25;52.38;;;20.88;;
17997;SDS011;9124;48.144;17.098;2022-12-18T20:01:02;61.33;;;24.67;;
17997;SDS011;9124;48.144;17.098;2022-12-18T20:04:39;56.58;;;22.52;;
17997;SDS011;9124;48.144;17.098;2022-12-18T20:08:16;55.00;;;22.90;;
17997;SDS011;9124;48.144;17.098;2022-12-18T20:11:52;50.88;;;22.05;;
17997;SDS011;9124;48.144;17.098;2022-12-18T20:15:28;53.25;;;22.23;;
17997;SDS011;9124;48.144;17.098;2022-12-18T20:19:05;53.78;;;24.48;;
17997;SDS011;9124;48.144;17.098;2022-12-18T20:22:42;53.33;;;23.30;;
17997;SDS011;9124;48.144;17.098;2022-12-18T20:26:19;67.32;;;25.80;;
17997;SDS011;9124;48.144;17.098;2022-12-18T20:29:55;57.78;;;24.63;;
17997;SDS011;9124;48.144;17.098;2022-12-18T20:33:31;61.40;;;24.58;;
17997;SDS011;9124;48.144;17.098;2022-12-18T20:37:08;71.28;;;26.65;;
17997;SDS011;9124;48.144;17.098;2022-12-18T20:40:44;75.28;;;28.17;;
17997;SDS011;9124;48.144;17.098;2022-12-18T20:44:21;59.65;;;24.02;;
17997;SDS011;9124;48.144;17.098;2022-12-18T20:47:58;60.65;;;25.88;;
17997;SDS011;9124;48.144;17.098;2022-12-18T20:51:35;63.55;;;24.92;;
17997;SDS011;9124;48.144;17.098;2022-12-18T20:55:12;62.55;;;25.67;;
17997;SDS011;9124;48.144;17.098;2022-12-18T20:58:49;63.53;;;25.02;;
17997;SDS011;9124;48.144;17.098;2022-12-18T21:02:25;61.67;;;25.17;;
17997;SDS011;9124;48.144;17.098;2022-12-18T21:06:02;72.03;;;26.70;;
17997;SDS011;9124;48.144;17.098;2022-12-18T21:09:38;56.53;;;21.67;;
17997;SDS011;9124;48.144;17.098;2022-12-18T21:13:15;65.68;;;25.13;;
17997;SDS011;9124;48.144;17.098;2022-12-18T21:16:51;60.97;;;25.20;;
17997;SDS011;9124;48.144;17.098;2022-12-18T21:20:28;62.53;;;25.73;;
17997;SDS011;9124;48.144;17.098;2022-12-18T21:24:05;72.20;;;26.98;;
17997;SDS011;9124;48.144;17.098;2022-12-18T21:27:43;57.15;;;27.10;;
17997;SDS011;9124;48.144;17.098;2022-12-18T21:31:19;62.58;;;26.15;;
17997;SDS011;9124;48.144;17.098;2022-12-18T21:34:57;66.75;;;27.55;;
17997;SDS011;9124;48.144;17.098;2022-12-18T21:38:33;61.78;;;26.73;;
17997;SDS011;9124;48.144;17.098;2022-12-18T21:42:11;80.03;;;26.73;;
17997;SDS011;9124;48.144;17.098;2022-12-18T21:46:06;71.20;;;26.27;;
17997;SDS011;9124;48.144;17.098;2022-12-18T21:49:43;75.20;;;27.38;;
17997;SDS011;9124;48.144;17.098;2022-12-18T21:53:19;67.47;;;27.13;;
17997;SDS011;9124;48.144;17.098;2022-12-18T21:56:57;65.57;;;27.98;;
17997;SDS011;9124;48.144;17.098;2022-12-18T22:00:37;76.90;;;28.00;;
17997;SDS011;9124;48.144;17.098;2022-12-18T22:04:22;72.63;;;27.38;;
17997;SDS011;9124;48.144;17.098;2022-12-18T22:08:00;68.55;;;28.60;;
17997;SDS011;9124;48.144;17.098;2022-12-18T22:11:36;63.85;;;27.85;;
17997;SDS011;9124;48.144;17.098;2022-12-18T22:15:12;65.53;;;27.25;;
17997;SDS011;9124;48.144;17.098;2022-12-18T22:18:49;65.95;;;27.88;;
17997;SDS011;9124;48.144;17.098;2022-12-18T22:22:25;64.88;;;27.75;;
17997;SDS011;9124;48.144;17.098;2022-12-18T22:26:01;67.75;;;27.75;;
17997;SDS011;9124;48.144;17.098;2022-12-18T22:29:38;69.05;;;25.70;;
17997;SDS011;9124;48.144;17.098;2022-12-18T22:33:32;77.38;;;28.40;;
17997;SDS011;9124;48.144;17.098;2022-12-18T22:37:10;71.60;;;28.30;;
17997;SDS011;9124;48.144;17.098;2022-12-18T22:40:46;74.85;;;27.02;;
17997;SDS011;9124;48.144;17.098;2022-12-18T22:44:23;64.95;;;27.23;;
17997;SDS011;9124;48.144;17.098;2022-12-18T22:47:59;69.03;;;28.77;;
17997;SDS011;9124;48.144;17.098;2022-12-18T22:51:36;62.42;;;27.13;;
17997;SDS011;9124;48.144;17.098;2022-12-18T22:55:12;71.32;;;27.23;;
17997;SDS011;9124;48.144;17.098;2022-12-18T22:58:49;75.90;;;28.27;;
17997;SDS011;9124;48.144;17.098;2022-12-18T23:02:26;76.63;;;29.33;;
17997;SDS011;9124;48.144;17.098;2022-12-18T23:06:03;72.95;;;29.23;;
17997;SDS011;9124;48.144;17.098;2022-12-18T23:09:43;63.30;;;27.02;;
17997;SDS011;9124;48.144;17.098;2022-12-18T23:13:20;73.10;;;26.70;;
17997;SDS011;9124;48.144;17.098;2022-12-18T23:16:56;73.15;;;26.08;;
17997;SDS011;9124;48.144;17.098;2022-12-18T23:20:33;77.03;;;27.58;;
17997;SDS011;9124;48.144;17.098;2022-12-18T23:24:09;68.68;;;26.00;;